sensor_id;sensor_type;location;lat;lon;timestamp;pressure;altitude;pressure_sealevel;temperature;humidity
33422;BME280;19763;55.798;37.782;2023-02-04T00:01:39;147682.09;;;1.43;85.24
33422;BME280;19763;55.798;37.782;2023-02-04T00:04:05;147687.16;;;1.45;85.83
33422;BME280;19763;55.798;37.782;2023-02-04T00:06:30;147688.47;;;1.46;85.17
33422;BME280;19763;55.798;37.782;2023-02-04T00:08:56;147697.34;;;1.49;85.10
33422;BME280;19763;55.798;37.782;2023-02-04T00:11:22;147687.16;;;1.45;84.48
33422;BME280;19763;55.798;37.782;2023-02-04T00:13:47;147707.53;;;1.53;84.49
33422;BME280;19763;55.798;37.782;2023-02-04T00:16:13;147689.72;;;1.46;84.13
33422;BME280;19763;55.798;37.782;2023-02-04T00:18:38;147684.66;;;1.44;83.85
33422;BME280;19763;55.798;37.782;2023-02-04T00:21:04;147671.91;;;1.39;84.01
33422;BME280;19763;55.798;37.782;2023-02-04T00:23:29;147645.16;;;1.28;84.31
33422;BME280;19763;55.798;37.782;2023-02-04T00:25:55;147666.84;;;1.37;84.74
33422;BME280;19763;55.798;37.782;2023-02-04T00:28:20;147659.16;;;1.34;84.92
33422;BME280;19763;55.798;37.782;2023-02-04T00:30:46;147684.66;;;1.44;85.32
33422;BME280;19763;55.798;37.782;2023-02-04T00:33:12;147684.66;;;1.44;84.81
33422;BME280;19763;55.798;37.782;2023-02-04T00:35:38;147699.91;;;1.50;85.26
33422;BME280;19763;55.798;37.782;2023-02-04T00:38:04;147684.66;;;1.44;84.68
33422;BME280;19763;55.798;37.782;2023-02-04T00:40:30;147710.09;;;1.54;85.17
33422;BME280;19763;55.798;37.782;2023-02-04T00:42:55;147694.84;;;1.48;84.45
33422;BME280;19763;55.798;37.782;2023-02-04T00:45:21;147671.91;;;1.39;84.21
33422;BME280;19763;55.798;37.782;2023-02-04T00:47:46;147704.97;;;1.52;84.68
33422;BME280;19763;55.798;37.782;2023-02-04T00:50:12;147682.09;;;1.43;84.24
33422;BME280;19763;55.798;37.782;2023-02-04T00:52:37;147698.66;;;1.50;84.81
33422;BME280;19763;55.798;37.782;2023-02-04T00:55:03;147689.72;;;1.46;84.76
33422;BME280;19763;55.798;37.782;2023-02-04T00:57:29;147710.09;;;1.54;85.14
33422;BME280;19763;55.798;37.782;2023-02-04T00:59:55;147720.28;;;1.59;85.09
33422;BME280;19763;55.798;37.782;2023-02-04T01:02:20;147720.28;;;1.59;85.07
33422;BME280;19763;55.798;37.782;2023-02-04T01:04:46;147729.19;;;1.62;85.01
33422;BME280;19763;55.798;37.782;2023-02-04T01:07:12;147730.47;;;1.63;85.14
33422;BME280;19763;55.798;37.782;2023-02-04T01:09:37;147725.38;;;1.61;85.40
33422;BME280;19763;55.798;37.782;2023-02-04T01:12:03;147735.56;;;1.65;85.19
33422;BME280;19763;55.798;37.782;2023-02-04T01:14:28;147735.56;;;1.65;84.94
33422;BME280;19763;55.798;37.782;2023-02-04T01:16:54;147741.94;;;1.67;85.13
33422;BME280;19763;55.798;37.782;2023-02-04T01:19:20;147725.38;;;1.61;84.90
33422;BME280;19763;55.798;37.782;2023-02-04T01:21:46;147724.09;;;1.60;85.27
33422;BME280;19763;55.798;37.782;2023-02-04T01:24:11;147722.84;;;1.60;84.57
33422;BME280;19763;55.798;37.782;2023-02-04T01:26:37;147738.13;;;1.66;84.61
33422;BME280;19763;55.798;37.782;2023-02-04T01:29:02;147717.72;;;1.58;84.16
33422;BME280;19763;55.798;37.782;2023-02-04T01:31:28;147720.28;;;1.59;83.82
33422;BME280;19763;55.798;37.782;2023-02-04T01:33:56;147748.31;;;1.70;84.35
33422;BME280;19763;55.798;37.782;2023-02-04T01:36:21;147741.94;;;1.67;84.99
33422;BME280;19763;55.798;37.782;2023-02-04T01:38:48;147752.13;;;1.71;84.88
33422;BME280;19763;55.798;37.782;2023-02-04T01:41:14;147764.81;;;1.77;84.98
33422;BME280;19763;55.798;37.782;2023-02-04T01:43:40;147762.31;;;1.76;84.72
33422;BME280;19763;55.798;37.782;2023-02-04T01:46:06;147722.84;;;1.60;84.82
33422;BME280;19763;55.798;37.782;2023-02-04T01:48:32;147708.84;;;1.54;85.18
33422;BME280;19763;55.798;37.782;2023-02-04T01:51:04;147696.09;;;1.49;85.17
33422;BME280;19763;55.798;37.782;2023-02-04T01:53:30;147675.72;;;1.41;85.08
33422;BME280;19763;55.798;37.782;2023-02-04T01:55:57;147706.28;;;1.53;85.06
33422;BME280;19763;55.798;37.782;2023-02-04T01:58:22;147722.84;;;1.60;85.16
33422;BME280;19763;55.798;37.782;2023-02-04T02:00:49;147727.91;;;1.62;85.34
33422;BME280;19763;55.798;37.782;2023-02-04T02:03:15;147735.56;;;1.65;85.01
33422;BME280;19763;55.798;37.782;2023-02-04T02:05:47;147697.34;;;1.49;84.45
33422;BME280;19763;55.798;37.782;2023-02-04T02:08:14;147697.34;;;1.49;84.91
33422;BME280;19763;55.798;37.782;2023-02-04T02:10:42;147722.84;;;1.60;85.35
33422;BME280;19763;55.798;37.782;2023-02-04T02:13:15;147725.38;;;1.61;85.05
33422;BME280;19763;55.798;37.782;2023-02-04T02:15:41;147694.84;;;1.48;84.58
33422;BME280;19763;55.798;37.782;2023-02-04T02:18:08;147701.16;;;1.51;84.73
33422;BME280;19763;55.798;37.782;2023-02-04T02:20:34;147694.84;;;1.48;85.12
33422;BME280;19763;55.798;37.782;2023-02-04T02:23:21;147684.66;;;1.44;85.32
33422;BME280;19763;55.798;37.782;2023-02-04T02:25:50;147701.16;;;1.51;84.86
33422;BME280;19763;55.798;37.782;2023-02-04T02:28:18;147697.34;;;1.49;85.39
33422;BME280;19763;55.798;37.782;2023-02-04T02:30:46;147722.84;;;1.60;85.30
33422;BME280;19763;55.798;37.782;2023-02-04T02:33:14;147665.53;;;1.36;85.18
33422;BME280;19763;55.798;37.782;2023-02-04T02:35:42;147669.34;;;1.38;86.34
33422;BME280;19763;55.798;37.782;2023-02-04T02:38:12;147698.66;;;1.50;86.00
33422;BME280;19763;55.798;37.782;2023-02-04T02:40:38;147727.91;;;1.62;86.21
33422;BME280;19763;55.798;37.782;2023-02-04T02:43:04;147740.69;;;1.67;86.29
33422;BME280;19763;55.798;37.782;2023-02-04T02:45:31;147743.19;;;1.68;86.41
33422;BME280;19763;55.798;37.782;2023-02-04T02:47:59;147729.19;;;1.62;85.85
33422;BME280;19763;55.798;37.782;2023-02-04T02:50:28;147715.19;;;1.57;85.95
33422;BME280;19763;55.798;37.782;2023-02-04T02:52:55;147743.19;;;1.68;86.11
33422;BME280;19763;55.798;37.782;2023-02-04T02:55:23;147711.34;;;1.55;85.45
33422;BME280;19763;55.798;37.782;2023-02-04T02:57:50;147703.72;;;1.52;85.75
33422;BME280;19763;55.798;37.782;2023-02-04T03:00:22;147697.34;;;1.49;86.24
33422;BME280;19763;55.798;37.782;2023-02-04T03:03:03;147730.47;;;1.63;86.04
33422;BME280;19763;55.798;37.782;2023-02-04T03:05:32;147715.19;;;1.57;85.86
33422;BME280;19763;55.798;37.782;2023-02-04T03:07:59;147755.94;;;1.73;86.03
33422;BME280;19763;55.798;37.782;2023-02-04T03:10:25;147748.31;;;1.70;86.22
33422;BME280;19763;55.798;37.782;2023-02-04T03:12:50;147753.38;;;1.72;85.27
33422;BME280;19763;55.798;37.782;2023-02-04T03:15:16;147773.75;;;1.80;85.53
33422;BME280;19763;55.798;37.782;2023-02-04T03:17:42;147752.13;;;1.71;84.35
33422;BME280;19763;55.798;37.782;2023-02-04T03:20:09;147764.81;;;1.77;85.19
33422;BME280;19763;55.798;37.782;2023-02-04T03:22:35;147787.78;;;1.86;85.29
33422;BME280;19763;55.798;37.782;2023-02-04T03:25:01;147792.84;;;1.88;85.69
33422;BME280;19763;55.798;37.782;2023-02-04T03:27:28;147789.03;;;1.86;85.10
33422;BME280;19763;55.798;37.782;2023-02-04T03:29:53;147781.41;;;1.83;85.30
33422;BME280;19763;55.798;37.782;2023-02-04T03:32:19;147777.56;;;1.82;85.64
33422;BME280;19763;55.798;37.782;2023-02-04T03:34:44;147789.03;;;1.86;86.00
33422;BME280;19763;55.798;37.782;2023-02-04T03:37:10;147790.31;;;1.87;86.13
33422;BME280;19763;55.798;37.782;2023-02-04T03:39:35;147783.94;;;1.84;85.63
33422;BME280;19763;55.798;37.782;2023-02-04T03:42:01;147795.41;;;1.89;84.42
33422;BME280;19763;55.798;37.782;2023-02-04T03:44:26;147783.94;;;1.84;85.15
33422;BME280;19763;55.798;37.782;2023-02-04T03:46:53;147786.50;;;1.85;85.55
33422;BME280;19763;55.798;37.782;2023-02-04T03:49:23;147796.66;;;1.89;85.21
33422;BME280;19763;55.798;37.782;2023-02-04T03:51:49;147791.59;;;1.87;84.93
33422;BME280;19763;55.798;37.782;2023-02-04T03:54:15;147768.69;;;1.78;85.07
33422;BME280;19763;55.798;37.782;2023-02-04T03:56:40;147775.03;;;1.81;84.69
33422;BME280;19763;55.798;37.782;2023-02-04T03:59:06;147778.84;;;1.82;83.75
33422;BME280;19763;55.798;37.782;2023-02-04T04:01:32;147745.75;;;1.69;84.02
33422;BME280;19763;55.798;37.782;2023-02-04T04:03:57;147754.69;;;1.72;84.57
33422;BME280;19763;55.798;37.782;2023-02-04T04:06:23;147772.50;;;1.80;85.04
33422;BME280;19763;55.798;37.782;2023-02-04T04:08:49;147782.66;;;1.84;85.04
33422;BME280;19763;55.798;37.782;2023-02-04T04:11:15;147773.75;;;1.80;84.62
33422;BME280;19763;55.798;37.782;2023-02-04T04:13:41;147768.69;;;1.78;83.99
33422;BME280;19763;55.798;37.782;2023-02-04T04:16:06;147733.00;;;1.64;83.63
33422;BME280;19763;55.798;37.782;2023-02-04T04:18:33;147776.31;;;1.81;83.46
33422;BME280;19763;55.798;37.782;2023-02-04T04:20:59;147773.75;;;1.80;83.97
33422;BME280;19763;55.798;37.782;2023-02-04T04:23:25;147753.38;;;1.72;83.85
33422;BME280;19763;55.798;37.782;2023-02-04T04:25:51;147777.56;;;1.82;84.23
33422;BME280;19763;55.798;37.782;2023-02-04T04:28:16;147787.78;;;1.86;83.87
33422;BME280;19763;55.798;37.782;2023-02-04T04:30:42;147795.41;;;1.89;84.17
33422;BME280;19763;55.798;37.782;2023-02-04T04:33:07;147803.03;;;1.92;84.80
33422;BME280;19763;55.798;37.782;2023-02-04T04:35:33;147781.41;;;1.83;84.37
33422;BME280;19763;55.798;37.782;2023-02-04T04:38:02;147781.41;;;1.83;85.09
33422;BME280;19763;55.798;37.782;2023-02-04T04:40:28;147786.50;;;1.85;84.63
33422;BME280;19763;55.798;37.782;2023-02-04T04:42:53;147796.66;;;1.89;84.86
33422;BME280;19763;55.798;37.782;2023-02-04T04:45:19;147795.41;;;1.89;84.56
33422;BME280;19763;55.798;37.782;2023-02-04T04:47:45;147805.59;;;1.93;84.78
33422;BME280;19763;55.798;37.782;2023-02-04T04:50:11;147817.03;;;1.98;84.16
33422;BME280;19763;55.798;37.782;2023-02-04T04:52:36;147823.41;;;2.00;83.71
33422;BME280;19763;55.798;37.782;2023-02-04T04:55:03;147794.16;;;1.88;83.46
33422;BME280;19763;55.798;37.782;2023-02-04T04:57:30;147815.78;;;1.97;83.92
33422;BME280;19763;55.798;37.782;2023-02-04T04:59:55;147824.69;;;2.01;83.54
33422;BME280;19763;55.798;37.782;2023-02-04T05:02:21;147801.78;;;1.92;83.39
33422;BME280;19763;55.798;37.782;2023-02-04T05:04:46;147804.34;;;1.93;84.00
33422;BME280;19763;55.798;37.782;2023-02-04T05:07:12;147782.66;;;1.84;83.40
33422;BME280;19763;55.798;37.782;2023-02-04T05:09:37;147797.97;;;1.90;83.00
33422;BME280;19763;55.798;37.782;2023-02-04T05:12:03;147810.66;;;1.95;83.31
33422;BME280;19763;55.798;37.782;2023-02-04T05:14:29;147794.16;;;1.88;83.02
33422;BME280;19763;55.798;37.782;2023-02-04T05:16:54;147711.34;;;1.55;82.96
33422;BME280;19763;55.798;37.782;2023-02-04T05:19:20;147692.28;;;1.47;83.91
33422;BME280;19763;55.798;37.782;2023-02-04T05:21:45;147687.16;;;1.45;83.86
33422;BME280;19763;55.798;37.782;2023-02-04T05:24:11;147731.75;;;1.63;84.35
33422;BME280;19763;55.798;37.782;2023-02-04T05:26:36;147750.81;;;1.71;83.94
33422;BME280;19763;55.798;37.782;2023-02-04T05:29:02;147721.56;;;1.59;83.93
33422;BME280;19763;55.798;37.782;2023-02-04T05:31:28;147699.91;;;1.50;84.16
33422;BME280;19763;55.798;37.782;2023-02-04T05:33:54;147708.84;;;1.54;84.63
33422;BME280;19763;55.798;37.782;2023-02-04T05:36:19;147729.19;;;1.62;84.73
33422;BME280;19763;55.798;37.782;2023-02-04T05:38:45;147750.81;;;1.71;84.72
33422;BME280;19763;55.798;37.782;2023-02-04T05:41:10;147763.56;;;1.76;84.38
33422;BME280;19763;55.798;37.782;2023-02-04T05:43:36;147778.84;;;1.82;84.95
33422;BME280;19763;55.798;37.782;2023-02-04T05:46:02;147794.16;;;1.88;84.45
33422;BME280;19763;55.798;37.782;2023-02-04T05:48:27;147786.50;;;1.85;83.83
33422;BME280;19763;55.798;37.782;2023-02-04T05:50:53;147739.38;;;1.66;81.58
33422;BME280;19763;55.798;37.782;2023-02-04T05:53:18;147735.56;;;1.65;81.73
33422;BME280;19763;55.798;37.782;2023-02-04T05:55:44;147724.09;;;1.60;81.65
33422;BME280;19763;55.798;37.782;2023-02-04T05:58:10;147692.28;;;1.47;81.30
33422;BME280;19763;55.798;37.782;2023-02-04T06:00:35;147738.13;;;1.66;81.55
33422;BME280;19763;55.798;37.782;2023-02-04T06:03:01;147727.91;;;1.62;81.10
33422;BME280;19763;55.798;37.782;2023-02-04T06:05:26;147747.00;;;1.69;81.43
33422;BME280;19763;55.798;37.782;2023-02-04T06:07:52;147764.81;;;1.77;80.96
33422;BME280;19763;55.798;37.782;2023-02-04T06:10:18;147778.84;;;1.82;81.18
33422;BME280;19763;55.798;37.782;2023-02-04T06:12:46;147759.75;;;1.75;80.96
33422;BME280;19763;55.798;37.782;2023-02-04T06:15:11;147773.75;;;1.80;80.92
33422;BME280;19763;55.798;37.782;2023-02-04T06:17:37;147778.84;;;1.82;80.65
33422;BME280;19763;55.798;37.782;2023-02-04T06:20:04;147792.84;;;1.88;81.07
33422;BME280;19763;55.798;37.782;2023-02-04T06:22:29;147781.41;;;1.83;80.39
33422;BME280;19763;55.798;37.782;2023-02-04T06:24:55;147786.50;;;1.85;80.32
33422;BME280;19763;55.798;37.782;2023-02-04T06:27:20;147778.84;;;1.82;80.40
33422;BME280;19763;55.798;37.782;2023-02-04T06:29:51;147735.56;;;1.65;80.04
33422;BME280;19763;55.798;37.782;2023-02-04T06:32:18;147727.91;;;1.62;79.05
33422;BME280;19763;55.798;37.782;2023-02-04T06:34:44;147753.38;;;1.72;79.88
33422;BME280;19763;55.798;37.782;2023-02-04T06:37:10;147768.69;;;1.78;79.74
33422;BME280;19763;55.798;37.782;2023-02-04T06:39:37;147767.38;;;1.78;79.33
33422;BME280;19763;55.798;37.782;2023-02-04T06:42:03;147776.31;;;1.81;79.94
33422;BME280;19763;55.798;37.782;2023-02-04T06:44:29;147790.31;;;1.87;79.07
33422;BME280;19763;55.798;37.782;2023-02-04T06:46:54;147806.84;;;1.94;79.11
33422;BME280;19763;55.798;37.782;2023-02-04T06:49:20;147809.41;;;1.95;78.99
33422;BME280;19763;55.798;37.782;2023-02-04T06:51:45;147824.69;;;2.01;79.23
33422;BME280;19763;55.798;37.782;2023-02-04T06:54:12;147843.81;;;2.09;79.81
33422;BME280;19763;55.798;37.782;2023-02-04T06:56:38;147854.00;;;2.13;79.54
33422;BME280;19763;55.798;37.782;2023-02-04T06:59:04;147855.25;;;2.13;79.44
33422;BME280;19763;55.798;37.782;2023-02-04T07:01:30;147837.44;;;2.06;77.71
33422;BME280;19763;55.798;37.782;2023-02-04T07:03:55;147855.25;;;2.13;77.71
33422;BME280;19763;55.798;37.782;2023-02-04T07:06:21;147827.22;;;2.02;76.69
33422;BME280;19763;55.798;37.782;2023-02-04T07:08:46;147852.69;;;2.12;77.92
33422;BME280;19763;55.798;37.782;2023-02-04T07:11:14;147856.53;;;2.14;78.18
33422;BME280;19763;55.798;37.782;2023-02-04T07:13:39;147860.38;;;2.15;77.60
33422;BME280;19763;55.798;37.782;2023-02-04T07:16:05;147823.41;;;2.00;78.31
33422;BME280;19763;55.798;37.782;2023-02-04T07:18:31;147804.34;;;1.93;77.98
33422;BME280;19763;55.798;37.782;2023-02-04T07:20:57;147789.03;;;1.86;78.99
33422;BME280;19763;55.798;37.782;2023-02-04T07:23:23;147762.31;;;1.76;79.13
33422;BME280;19763;55.798;37.782;2023-02-04T07:25:50;147727.91;;;1.62;80.67
33422;BME280;19763;55.798;37.782;2023-02-04T07:28:18;147725.38;;;1.61;80.73
33422;BME280;19763;55.798;37.782;2023-02-04T07:30:44;147693.53;;;1.48;80.58
33422;BME280;19763;55.798;37.782;2023-02-04T07:33:10;147660.47;;;1.34;81.32
33422;BME280;19763;55.798;37.782;2023-02-04T07:35:35;147675.72;;;1.41;81.71
33422;BME280;19763;55.798;37.782;2023-02-04T07:38:03;147682.09;;;1.43;79.81
33422;BME280;19763;55.798;37.782;2023-02-04T07:40:28;147748.31;;;1.70;79.08
33422;BME280;19763;55.798;37.782;2023-02-04T07:42:54;147763.56;;;1.76;79.17
33422;BME280;19763;55.798;37.782;2023-02-04T07:45:20;147776.31;;;1.81;78.91
33422;BME280;19763;55.798;37.782;2023-02-04T07:47:45;147759.75;;;1.75;78.42
33422;BME280;19763;55.798;37.782;2023-02-04T07:50:11;147776.31;;;1.81;78.18
33422;BME280;19763;55.798;37.782;2023-02-04T07:52:36;147780.13;;;1.83;78.45
33422;BME280;19763;55.798;37.782;2023-02-04T07:55:03;147775.03;;;1.81;78.21
33422;BME280;19763;55.798;37.782;2023-02-04T07:57:29;147702.47;;;1.51;75.56
33422;BME280;19763;55.798;37.782;2023-02-04T07:59:55;147782.66;;;1.84;75.95
33422;BME280;19763;55.798;37.782;2023-02-04T08:02:20;147845.06;;;2.09;76.19
33422;BME280;19763;55.798;37.782;2023-02-04T08:04:46;147851.44;;;2.12;76.20
33422;BME280;19763;55.798;37.782;2023-02-04T08:07:12;147885.84;;;2.26;75.96
33422;BME280;19763;55.798;37.782;2023-02-04T08:09:37;147908.75;;;2.35;76.60
33422;BME280;19763;55.798;37.782;2023-02-04T08:12:03;147884.53;;;2.25;74.88
33422;BME280;19763;55.798;37.782;2023-02-04T08:14:29;147885.84;;;2.26;74.24
33422;BME280;19763;55.798;37.782;2023-02-04T08:16:55;147899.84;;;2.31;75.22
33422;BME280;19763;55.798;37.782;2023-02-04T08:19:20;147939.34;;;2.47;74.49
33422;BME280;19763;55.798;37.782;2023-02-04T08:21:47;147930.41;;;2.44;75.40
33422;BME280;19763;55.798;37.782;2023-02-04T08:24:13;147932.97;;;2.45;73.72
33422;BME280;19763;55.798;37.782;2023-02-04T08:26:40;147913.88;;;2.37;73.65
33422;BME280;19763;55.798;37.782;2023-02-04T08:29:06;147888.34;;;2.27;75.30
33422;BME280;19763;55.798;37.782;2023-02-04T08:31:32;147940.59;;;2.48;75.94
33422;BME280;19763;55.798;37.782;2023-02-04T08:33:57;147939.34;;;2.47;75.11
33422;BME280;19763;55.798;37.782;2023-02-04T08:36:23;147959.75;;;2.55;71.03
33422;BME280;19763;55.798;37.782;2023-02-04T08:38:49;147880.72;;;2.23;72.35
33422;BME280;19763;55.798;37.782;2023-02-04T08:41:14;147918.94;;;2.39;74.47
33422;BME280;19763;55.798;37.782;2023-02-04T08:43:40;147912.56;;;2.36;74.87
33422;BME280;19763;55.798;37.782;2023-02-04T08:46:05;147897.28;;;2.30;74.90
33422;BME280;19763;55.798;37.782;2023-02-04T08:48:31;147852.69;;;2.12;73.78
33422;BME280;19763;55.798;37.782;2023-02-04T08:50:57;147859.06;;;2.15;74.09
33422;BME280;19763;55.798;37.782;2023-02-04T08:53:23;147848.88;;;2.11;74.12
33422;BME280;19763;55.798;37.782;2023-02-04T08:55:48;147833.63;;;2.04;73.31
33422;BME280;19763;55.798;37.782;2023-02-04T08:58:14;147861.63;;;2.16;73.71
33422;BME280;19763;55.798;37.782;2023-02-04T09:00:40;147893.47;;;2.29;73.94
33422;BME280;19763;55.798;37.782;2023-02-04T09:03:05;147880.72;;;2.23;72.32
33422;BME280;19763;55.798;37.782;2023-02-04T09:05:32;147827.22;;;2.02;71.16
33422;BME280;19763;55.798;37.782;2023-02-04T09:07:57;147777.56;;;1.82;71.04
33422;BME280;19763;55.798;37.782;2023-02-04T09:10:23;147764.81;;;1.77;70.58
33422;BME280;19763;55.798;37.782;2023-02-04T09:12:49;147829.78;;;2.03;71.77
33422;BME280;19763;55.798;37.782;2023-02-04T09:15:21;147815.78;;;1.97;71.71
33422;BME280;19763;55.798;37.782;2023-02-04T09:17:47;147773.75;;;1.80;70.95
33422;BME280;19763;55.798;37.782;2023-02-04T09:20:13;147764.81;;;1.77;71.32
33422;BME280;19763;55.798;37.782;2023-02-04T09:22:38;147777.56;;;1.82;71.58
33422;BME280;19763;55.798;37.782;2023-02-04T09:25:04;147794.16;;;1.88;71.04
33422;BME280;19763;55.798;37.782;2023-02-04T09:27:30;147841.25;;;2.07;70.37
33422;BME280;19763;55.798;37.782;2023-02-04T09:29:56;147869.28;;;2.19;70.49
33422;BME280;19763;55.798;37.782;2023-02-04T09:32:22;147781.41;;;1.83;70.35
33422;BME280;19763;55.798;37.782;2023-02-04T09:34:48;147762.31;;;1.76;70.86
33422;BME280;19763;55.798;37.782;2023-02-04T09:37:13;147738.13;;;1.66;71.95
33422;BME280;19763;55.798;37.782;2023-02-04T09:39:39;147815.78;;;1.97;71.46
33422;BME280;19763;55.798;37.782;2023-02-04T09:42:04;147759.75;;;1.75;72.39
33422;BME280;19763;55.798;37.782;2023-02-04T09:44:30;147776.31;;;1.81;73.34
33422;BME280;19763;55.798;37.782;2023-02-04T09:46:58;147827.22;;;2.02;73.61
33422;BME280;19763;55.798;37.782;2023-02-04T09:49:26;147845.06;;;2.09;73.30
33422;BME280;19763;55.798;37.782;2023-02-04T09:51:54;147848.88;;;2.11;73.21
33422;BME280;19763;55.798;37.782;2023-02-04T09:54:21;147833.63;;;2.04;74.03
33422;BME280;19763;55.798;37.782;2023-02-04T09:56:47;147818.34;;;1.98;73.71
33422;BME280;19763;55.798;37.782;2023-02-04T09:59:16;147838.69;;;2.06;73.57
33422;BME280;19763;55.798;37.782;2023-02-04T10:01:42;147803.03;;;1.92;74.73
33422;BME280;19763;55.798;37.782;2023-02-04T10:04:12;147790.31;;;1.87;74.99
33422;BME280;19763;55.798;37.782;2023-02-04T10:06:39;147836.19;;;2.05;74.74
33422;BME280;19763;55.798;37.782;2023-02-04T10:09:09;147868.00;;;2.18;74.38
33422;BME280;19763;55.798;37.782;2023-02-04T10:11:37;147791.59;;;1.87;72.81
33422;BME280;19763;55.798;37.782;2023-02-04T10:14:03;147772.50;;;1.80;72.55
33422;BME280;19763;55.798;37.782;2023-02-04T10:16:31;147752.13;;;1.71;72.61
33422;BME280;19763;55.798;37.782;2023-02-04T10:19:03;147768.69;;;1.78;74.35
33422;BME280;19763;55.798;37.782;2023-02-04T10:21:33;147752.13;;;1.71;75.14
33422;BME280;19763;55.798;37.782;2023-02-04T10:24:03;147752.13;;;1.71;75.92
33422;BME280;19763;55.798;37.782;2023-02-04T10:26:30;147810.66;;;1.95;76.43
33422;BME280;19763;55.798;37.782;2023-02-04T10:29:04;147842.50;;;2.08;75.73
33422;BME280;19763;55.798;37.782;2023-02-04T10:31:38;147848.88;;;2.11;76.84
33422;BME280;19763;55.798;37.782;2023-02-04T10:34:20;147833.63;;;2.04;77.45
33422;BME280;19763;55.798;37.782;2023-02-04T10:36:52;147738.13;;;1.66;75.55
33422;BME280;19763;55.798;37.782;2023-02-04T10:41:54;147669.34;;;1.38;77.22
33422;BME280;19763;55.798;37.782;2023-02-04T10:44:27;147776.31;;;1.81;78.07
33422;BME280;19763;55.798;37.782;2023-02-04T10:47:00;147769.94;;;1.79;79.11
33422;BME280;19763;55.798;37.782;2023-02-04T10:49:26;147795.41;;;1.89;79.14
33422;BME280;19763;55.798;37.782;2023-02-04T10:51:52;147805.59;;;1.93;79.21
33422;BME280;19763;55.798;37.782;2023-02-04T10:54:20;147811.97;;;1.96;79.67
33422;BME280;19763;55.798;37.782;2023-02-04T10:59:29;147796.66;;;1.89;79.77
33422;BME280;19763;55.798;37.782;2023-02-04T11:01:56;147865.47;;;2.17;79.62
33422;BME280;19763;55.798;37.782;2023-02-04T11:04:25;147817.03;;;1.98;78.87
33422;BME280;19763;55.798;37.782;2023-02-04T11:06:51;147753.38;;;1.72;80.60
33422;BME280;19763;55.798;37.782;2023-02-04T11:09:17;147736.81;;;1.65;80.30
33422;BME280;19763;55.798;37.782;2023-02-04T11:11:48;147769.94;;;1.79;80.40
33422;BME280;19763;55.798;37.782;2023-02-04T11:14:29;147791.59;;;1.87;80.18
33422;BME280;19763;55.798;37.782;2023-02-04T11:16:56;147800.53;;;1.91;79.10
33422;BME280;19763;55.798;37.782;2023-02-04T11:19:38;147795.41;;;1.89;79.00
33422;BME280;19763;55.798;37.782;2023-02-04T11:22:19;147730.47;;;1.63;78.75
33422;BME280;19763;55.798;37.782;2023-02-04T11:24:46;147731.75;;;1.63;79.58
33422;BME280;19763;55.798;37.782;2023-02-04T11:27:35;147740.69;;;1.67;80.62
33422;BME280;19763;55.798;37.782;2023-02-04T11:30:19;147703.72;;;1.52;79.69
33422;BME280;19763;55.798;37.782;2023-02-04T11:32:55;147712.66;;;1.55;79.12
33422;BME280;19763;55.798;37.782;2023-02-04T11:35:27;147748.31;;;1.70;79.07
33422;BME280;19763;55.798;37.782;2023-02-04T11:37:53;147731.75;;;1.63;78.56
33422;BME280;19763;55.798;37.782;2023-02-04T11:40:24;147748.31;;;1.70;78.21
33422;BME280;19763;55.798;37.782;2023-02-04T11:42:56;147800.53;;;1.91;77.99
33422;BME280;19763;55.798;37.782;2023-02-04T11:45:30;147799.22;;;1.90;77.91
33422;BME280;19763;55.798;37.782;2023-02-04T11:47:58;147811.97;;;1.96;78.25
33422;BME280;19763;55.798;37.782;2023-02-04T11:50:34;147822.16;;;2.00;77.14
33422;BME280;19763;55.798;37.782;2023-02-04T11:53:03;147792.84;;;1.88;77.65
33422;BME280;19763;55.798;37.782;2023-02-04T11:55:31;147780.13;;;1.83;76.97
33422;BME280;19763;55.798;37.782;2023-02-04T11:57:59;147828.53;;;2.02;76.96
33422;BME280;19763;55.798;37.782;2023-02-04T12:00:28;147791.59;;;1.87;76.76
33422;BME280;19763;55.798;37.782;2023-02-04T12:03:02;147747.00;;;1.69;78.00
33422;BME280;19763;55.798;37.782;2023-02-04T12:05:45;147733.00;;;1.64;78.75
33422;BME280;19763;55.798;37.782;2023-02-04T12:10:58;147738.13;;;1.66;78.56
33422;BME280;19763;55.798;37.782;2023-02-04T12:13:25;147758.50;;;1.74;79.35
33422;BME280;19763;55.798;37.782;2023-02-04T12:18:23;147764.81;;;1.77;79.27
33422;BME280;19763;55.798;37.782;2023-02-04T12:20:49;147720.28;;;1.59;79.94
33422;BME280;19763;55.798;37.782;2023-02-04T12:23:14;147704.97;;;1.52;81.16
33422;BME280;19763;55.798;37.782;2023-02-04T12:25:40;147733.00;;;1.64;80.93
33422;BME280;19763;55.798;37.782;2023-02-04T12:28:05;147768.69;;;1.78;81.09
33422;BME280;19763;55.798;37.782;2023-02-04T12:30:31;147805.59;;;1.93;81.07
33422;BME280;19763;55.798;37.782;2023-02-04T12:32:56;147745.75;;;1.69;80.62
33422;BME280;19763;55.798;37.782;2023-02-04T12:35:22;147748.31;;;1.70;80.74
33422;BME280;19763;55.798;37.782;2023-02-04T12:37:47;147701.16;;;1.51;81.68
33422;BME280;19763;55.798;37.782;2023-02-04T12:40:17;147766.13;;;1.77;82.10
33422;BME280;19763;55.798;37.782;2023-02-04T12:42:43;147759.75;;;1.75;81.02
33422;BME280;19763;55.798;37.782;2023-02-04T12:45:10;147750.81;;;1.71;80.89
33422;BME280;19763;55.798;37.782;2023-02-04T12:47:36;147761.00;;;1.75;80.66
33422;BME280;19763;55.798;37.782;2023-02-04T12:50:02;147750.81;;;1.71;81.35
33422;BME280;19763;55.798;37.782;2023-02-04T12:52:28;147781.41;;;1.83;81.39
33422;BME280;19763;55.798;37.782;2023-02-04T12:54:54;147753.38;;;1.72;81.38
33422;BME280;19763;55.798;37.782;2023-02-04T12:57:19;147659.16;;;1.34;82.11
33422;BME280;19763;55.798;37.782;2023-02-04T12:59:46;147663.03;;;1.35;82.73